sensor_id;sensor_type;location;lat;lon;timestamp;P1;durP1;ratioP1;P2;durP2;ratioP2
5549;SDS011;2798;42.716;23.256;2023-08-01T00:01:23;4.60;;;1.87;;
5549;SDS011;2798;42.716;23.256;2023-08-01T00:03:48;2.03;;;1.80;;
5549;SDS011;2798;42.716;23.256;2023-08-01T00:06:14;4.03;;;1.80;;
5549;SDS011;2798;42.716;23.256;2023-08-01T00:08:39;2.23;;;2.03;;
5549;SDS011;2798;42.716;23.256;2023-08-01T00:11:04;2.80;;;2.37;;
5549;SDS011;2798;42.716;23.256;2023-08-01T00:13:30;2.10;;;1.90;;
5549;SDS011;2798;42.716;23.256;2023-08-01T00:15:55;2.43;;;2.10;;
5549;SDS011;2798;42.716;23.256;2023-08-01T00:18:21;2.47;;;1.80;;
5549;SDS011;2798;42.716;23.256;2023-08-01T00:20:46;3.77;;;1.97;;
5549;SDS011;2798;42.716;23.256;2023-08-01T00:23:12;2.47;;;2.20;;
5549;SDS011;2798;42.716;23.256;2023-08-01T00:25:37;2.20;;;2.00;;
5549;SDS011;2798;42.716;23.256;2023-08-01T00:28:02;3.43;;;2.20;;
5549;SDS011;2798;42.716;23.256;2023-08-01T00:30:28;2.63;;;2.00;;
5549;SDS011;2798;42.716;23.256;2023-08-01T00:32:53;2.73;;;2.00;;
5549;SDS011;2798;42.716;23.256;2023-08-01T00:35:19;2.40;;;2.10;;
5549;SDS011;2798;42.716;23.256;2023-08-01T00:37:44;1.97;;;1.70;;
5549;SDS011;2798;42.716;23.256;2023-08-01T00:40:10;2.20;;;2.00;;
5549;SDS011;2798;42.716;23.256;2023-08-01T00:42:36;2.93;;;2.00;;
5549;SDS011;2798;42.716;23.256;2023-08-01T00:45:05;4.43;;;2.20;;
5549;SDS011;2798;42.716;23.256;2023-08-01T00:47:31;3.53;;;2.10;;
5549;SDS011;2798;42.716;23.256;2023-08-01T00:49:56;2.43;;;2.20;;
5549;SDS011;2798;42.716;23.256;2023-08-01T00:52:22;2.10;;;1.90;;
5549;SDS011;2798;42.716;23.256;2023-08-01T00:54:47;1.93;;;1.83;;
5549;SDS011;2798;42.716;23.256;2023-08-01T00:57:13;3.83;;;1.90;;
5549;SDS011;2798;42.716;23.256;2023-08-01T00:59:39;1.60;;;1.50;;
5549;SDS011;2798;42.716;23.256;2023-08-01T01:02:05;3.20;;;1.80;;
5549;SDS011;2798;42.716;23.256;2023-08-01T01:04:30;2.63;;;2.20;;
5549;SDS011;2798;42.716;23.256;2023-08-01T01:07:02;2.00;;;1.80;;
5549;SDS011;2798;42.716;23.256;2023-08-01T01:09:31;4.03;;;1.93;;
5549;SDS011;2798;42.716;23.256;2023-08-01T01:11:59;3.23;;;2.00;;
5549;SDS011;2798;42.716;23.256;2023-08-01T01:14:28;2.90;;;2.17;;
5549;SDS011;2798;42.716;23.256;2023-08-01T01:16:54;2.10;;;1.90;;
5549;SDS011;2798;42.716;23.256;2023-08-01T01:19:20;2.20;;;2.00;;
5549;SDS011;2798;42.716;23.256;2023-08-01T01:21:45;2.00;;;1.87;;
5549;SDS011;2798;42.716;23.256;2023-08-01T01:24:12;3.63;;;2.07;;
5549;SDS011;2798;42.716;23.256;2023-08-01T01:26:40;2.23;;;1.87;;
5549;SDS011;2798;42.716;23.256;2023-08-01T01:29:07;3.30;;;2.17;;
5549;SDS011;2798;42.716;23.256;2023-08-01T01:31:34;4.70;;;2.20;;
5549;SDS011;2798;42.716;23.256;2023-08-01T01:34:01;3.90;;;2.20;;
5549;SDS011;2798;42.716;23.256;2023-08-01T01:36:27;3.13;;;2.50;;
5549;SDS011;2798;42.716;23.256;2023-08-01T01:38:52;2.27;;;2.07;;
5549;SDS011;2798;42.716;23.256;2023-08-01T01:41:18;2.93;;;1.90;;
5549;SDS011;2798;42.716;23.256;2023-08-01T01:43:43;4.17;;;2.20;;
5549;SDS011;2798;42.716;23.256;2023-08-01T01:46:09;1.87;;;1.73;;
5549;SDS011;2798;42.716;23.256;2023-08-01T01:48:35;2.20;;;2.00;;
5549;SDS011;2798;42.716;23.256;2023-08-01T01:51:00;3.63;;;2.27;;
5549;SDS011;2798;42.716;23.256;2023-08-01T01:53:25;1.87;;;1.77;;
5549;SDS011;2798;42.716;23.256;2023-08-01T01:55:51;3.77;;;2.27;;
5549;SDS011;2798;42.716;23.256;2023-08-01T01:58:16;4.07;;;2.57;;
5549;SDS011;2798;42.716;23.256;2023-08-01T02:00:42;2.93;;;2.00;;
5549;SDS011;2798;42.716;23.256;2023-08-01T02:03:07;2.33;;;2.13;;
5549;SDS011;2798;42.716;23.256;2023-08-01T02:05:35;2.53;;;2.20;;
5549;SDS011;2798;42.716;23.256;2023-08-01T02:08:01;3.90;;;2.23;;
5549;SDS011;2798;42.716;23.256;2023-08-01T02:10:27;2.50;;;2.20;;
5549;SDS011;2798;42.716;23.256;2023-08-01T02:12:52;5.37;;;2.20;;
5549;SDS011;2798;42.716;23.256;2023-08-01T02:15:18;3.73;;;2.50;;
5549;SDS011;2798;42.716;23.256;2023-08-01T02:17:43;2.60;;;2.17;;
5549;SDS011;2798;42.716;23.256;2023-08-01T02:20:08;4.70;;;2.50;;
5549;SDS011;2798;42.716;23.256;2023-08-01T02:22:34;5.90;;;2.37;;
5549;SDS011;2798;42.716;23.256;2023-08-01T02:25:00;3.87;;;2.30;;
5549;SDS011;2798;42.716;23.256;2023-08-01T02:27:25;4.37;;;2.27;;
5549;SDS011;2798;42.716;23.256;2023-08-01T02:29:50;3.80;;;1.83;;
5549;SDS011;2798;42.716;23.256;2023-08-01T02:32:16;2.63;;;2.10;;
5549;SDS011;2798;42.716;23.256;2023-08-01T02:34:42;2.70;;;1.97;;
5549;SDS011;2798;42.716;23.256;2023-08-01T02:37:07;2.13;;;1.93;;
5549;SDS011;2798;42.716;23.256;2023-08-01T02:39:33;2.03;;;1.83;;
5549;SDS011;2798;42.716;23.256;2023-08-01T02:42:00;4.07;;;1.93;;
5549;SDS011;2798;42.716;23.256;2023-08-01T02:44:25;3.80;;;2.60;;
5549;SDS011;2798;42.716;23.256;2023-08-01T02:46:51;8.47;;;2.60;;
5549;SDS011;2798;42.716;23.256;2023-08-01T02:49:16;3.33;;;2.20;;
5549;SDS011;2798;42.716;23.256;2023-08-01T02:51:42;4.00;;;2.37;;
5549;SDS011;2798;42.716;23.256;2023-08-01T02:54:07;2.37;;;2.07;;
5549;SDS011;2798;42.716;23.256;2023-08-01T02:56:32;2.87;;;2.27;;
5549;SDS011;2798;42.716;23.256;2023-08-01T02:58:58;3.13;;;2.40;;
5549;SDS011;2798;42.716;23.256;2023-08-01T03:01:23;4.37;;;2.00;;
5549;SDS011;2798;42.716;23.256;2023-08-01T03:03:49;3.00;;;2.70;;
5549;SDS011;2798;42.716;23.256;2023-08-01T03:06:14;3.60;;;2.87;;
5549;SDS011;2798;42.716;23.256;2023-08-01T03:08:40;4.40;;;2.10;;
5549;SDS011;2798;42.716;23.256;2023-08-01T03:11:05;5.33;;;2.77;;
5549;SDS011;2798;42.716;23.256;2023-08-01T03:13:31;3.93;;;2.23;;
5549;SDS011;2798;42.716;23.256;2023-08-01T03:15:56;2.37;;;2.20;;
5549;SDS011;2798;42.716;23.256;2023-08-01T03:18:22;4.97;;;2.53;;
5549;SDS011;2798;42.716;23.256;2023-08-01T03:20:48;2.43;;;2.23;;
5549;SDS011;2798;42.716;23.256;2023-08-01T03:23:13;3.30;;;2.30;;
5549;SDS011;2798;42.716;23.256;2023-08-01T03:25:38;2.30;;;2.07;;
5549;SDS011;2798;42.716;23.256;2023-08-01T03:28:04;2.97;;;2.50;;
5549;SDS011;2798;42.716;23.256;2023-08-01T03:30:31;4.83;;;2.40;;
5549;SDS011;2798;42.716;23.256;2023-08-01T03:32:57;4.00;;;2.83;;
5549;SDS011;2798;42.716;23.256;2023-08-01T03:35:23;5.70;;;3.03;;
5549;SDS011;2798;42.716;23.256;2023-08-01T03:37:49;3.97;;;2.23;;
5549;SDS011;2798;42.716;23.256;2023-08-01T03:40:14;2.93;;;2.33;;
5549;SDS011;2798;42.716;23.256;2023-08-01T03:42:40;3.43;;;2.40;;
5549;SDS011;2798;42.716;23.256;2023-08-01T03:45:06;3.10;;;2.30;;
5549;SDS011;2798;42.716;23.256;2023-08-01T03:47:32;8.83;;;3.23;;
5549;SDS011;2798;42.716;23.256;2023-08-01T03:49:57;4.07;;;2.67;;
5549;SDS011;2798;42.716;23.256;2023-08-01T03:52:23;2.97;;;2.67;;
5549;SDS011;2798;42.716;23.256;2023-08-01T03:54:49;3.27;;;2.97;;
5549;SDS011;2798;42.716;23.256;2023-08-01T03:57:14;2.87;;;2.50;;
5549;SDS011;2798;42.716;23.256;2023-08-01T03:59:40;3.00;;;2.50;;
5549;SDS011;2798;42.716;23.256;2023-08-01T04:02:05;4.17;;;2.60;;
5549;SDS011;2798;42.716;23.256;2023-08-01T04:04:31;3.13;;;2.80;;
5549;SDS011;2798;42.716;23.256;2023-08-01T04:06:56;4.70;;;2.60;;
5549;SDS011;2798;42.716;23.256;2023-08-01T04:09:22;5.37;;;3.00;;
5549;SDS011;2798;42.716;23.256;2023-08-01T04:11:48;4.93;;;2.50;;
5549;SDS011;2798;42.716;23.256;2023-08-01T04:14:13;4.30;;;2.90;;
5549;SDS011;2798;42.716;23.256;2023-08-01T04:16:39;2.57;;;2.37;;
5549;SDS011;2798;42.716;23.256;2023-08-01T04:19:04;7.40;;;2.90;;
5549;SDS011;2798;42.716;23.256;2023-08-01T04:21:30;9.40;;;2.77;;
5549;SDS011;2798;42.716;23.256;2023-08-01T04:23:55;3.40;;;2.90;;
5549;SDS011;2798;42.716;23.256;2023-08-01T04:26:21;4.20;;;2.67;;
5549;SDS011;2798;42.716;23.256;2023-08-01T04:28:46;3.33;;;2.23;;
5549;SDS011;2798;42.716;23.256;2023-08-01T04:31:12;4.90;;;3.27;;
5549;SDS011;2798;42.716;23.256;2023-08-01T04:33:38;5.37;;;3.27;;
5549;SDS011;2798;42.716;23.256;2023-08-01T04:36:03;5.63;;;2.90;;
5549;SDS011;2798;42.716;23.256;2023-08-01T04:38:29;7.63;;;2.97;;
5549;SDS011;2798;42.716;23.256;2023-08-01T04:40:54;7.40;;;2.50;;
5549;SDS011;2798;42.716;23.256;2023-08-01T04:43:19;2.63;;;2.43;;
5549;SDS011;2798;42.716;23.256;2023-08-01T04:45:45;2.93;;;2.63;;
5549;SDS011;2798;42.716;23.256;2023-08-01T04:48:11;4.87;;;2.40;;
5549;SDS011;2798;42.716;23.256;2023-08-01T04:50:36;5.57;;;2.50;;
5549;SDS011;2798;42.716;23.256;2023-08-01T04:53:01;2.83;;;2.53;;
5549;SDS011;2798;42.716;23.256;2023-08-01T04:55:27;5.93;;;2.57;;
5549;SDS011;2798;42.716;23.256;2023-08-01T04:57:53;4.87;;;2.60;;
5549;SDS011;2798;42.716;23.256;2023-08-01T05:00:18;4.80;;;3.00;;
5549;SDS011;2798;42.716;23.256;2023-08-01T05:02:44;6.60;;;3.47;;
5549;SDS011;2798;42.716;23.256;2023-08-01T05:05:09;5.20;;;2.47;;
5549;SDS011;2798;42.716;23.256;2023-08-01T05:07:35;4.10;;;2.47;;
5549;SDS011;2798;42.716;23.256;2023-08-01T05:10:00;6.47;;;2.83;;
5549;SDS011;2798;42.716;23.256;2023-08-01T05:12:25;5.60;;;3.03;;
5549;SDS011;2798;42.716;23.256;2023-08-01T05:14:51;6.90;;;4.30;;
5549;SDS011;2798;42.716;23.256;2023-08-01T05:17:16;4.60;;;2.70;;
5549;SDS011;2798;42.716;23.256;2023-08-01T05:19:42;2.83;;;2.53;;
5549;SDS011;2798;42.716;23.256;2023-08-01T05:22:07;8.30;;;3.93;;
5549;SDS011;2798;42.716;23.256;2023-08-01T05:24:32;6.97;;;4.33;;
5549;SDS011;2798;42.716;23.256;2023-08-01T05:26:58;6.00;;;3.70;;
5549;SDS011;2798;42.716;23.256;2023-08-01T05:29:23;7.10;;;3.67;;
5549;SDS011;2798;42.716;23.256;2023-08-01T05:31:49;3.80;;;2.83;;
5549;SDS011;2798;42.716;23.256;2023-08-01T05:34:14;4.23;;;2.77;;
5549;SDS011;2798;42.716;23.256;2023-08-01T05:36:39;4.73;;;2.77;;
5549;SDS011;2798;42.716;23.256;2023-08-01T05:39:05;8.00;;;2.70;;
5549;SDS011;2798;42.716;23.256;2023-08-01T05:41:30;8.23;;;2.67;;
5549;SDS011;2798;42.716;23.256;2023-08-01T05:43:57;4.50;;;3.43;;
5549;SDS011;2798;42.716;23.256;2023-08-01T05:46:23;4.23;;;3.23;;
5549;SDS011;2798;42.716;23.256;2023-08-01T05:48:49;3.47;;;2.30;;
5549;SDS011;2798;42.716;23.256;2023-08-01T05:51:14;5.83;;;3.60;;
5549;SDS011;2798;42.716;23.256;2023-08-01T05:53:40;4.40;;;3.13;;
5549;SDS011;2798;42.716;23.256;2023-08-01T05:56:05;2.77;;;2.40;;
5549;SDS011;2798;42.716;23.256;2023-08-01T05:58:31;3.87;;;2.73;;
5549;SDS011;2798;42.716;23.256;2023-08-01T06:00:56;3.10;;;2.53;;
5549;SDS011;2798;42.716;23.256;2023-08-01T06:03:22;5.70;;;2.07;;
5549;SDS011;2798;42.716;23.256;2023-08-01T06:05:47;2.23;;;2.00;;
5549;SDS011;2798;42.716;23.256;2023-08-01T06:08:13;4.90;;;2.30;;
5549;SDS011;2798;42.716;23.256;2023-08-01T06:10:40;2.70;;;2.30;;
5549;SDS011;2798;42.716;23.256;2023-08-01T06:13:06;4.20;;;2.57;;
5549;SDS011;2798;42.716;23.256;2023-08-01T06:15:31;3.63;;;2.30;;
5549;SDS011;2798;42.716;23.256;2023-08-01T06:17:57;5.60;;;2.30;;
5549;SDS011;2798;42.716;23.256;2023-08-01T06:20:22;2.27;;;2.07;;
5549;SDS011;2798;42.716;23.256;2023-08-01T06:22:47;4.90;;;2.30;;
5549;SDS011;2798;42.716;23.256;2023-08-01T06:25:13;6.77;;;2.70;;
5549;SDS011;2798;42.716;23.256;2023-08-01T06:27:38;3.10;;;1.87;;
5549;SDS011;2798;42.716;23.256;2023-08-01T06:30:04;5.17;;;3.20;;
5549;SDS011;2798;42.716;23.256;2023-08-01T06:32:31;4.97;;;2.50;;
5549;SDS011;2798;42.716;23.256;2023-08-01T06:34:56;4.00;;;2.20;;
5549;SDS011;2798;42.716;23.256;2023-08-01T06:37:21;4.63;;;2.30;;
5549;SDS011;2798;42.716;23.256;2023-08-01T06:39:47;4.57;;;2.53;;
5549;SDS011;2798;42.716;23.256;2023-08-01T06:42:12;4.37;;;2.47;;
5549;SDS011;2798;42.716;23.256;2023-08-01T06:44:38;3.90;;;2.37;;
5549;SDS011;2798;42.716;23.256;2023-08-01T06:47:03;3.40;;;2.63;;
5549;SDS011;2798;42.716;23.256;2023-08-01T06:49:29;4.60;;;2.60;;
5549;SDS011;2798;42.716;23.256;2023-08-01T06:51:54;2.67;;;2.03;;
5549;SDS011;2798;42.716;23.256;2023-08-01T06:54:20;6.43;;;2.30;;
5549;SDS011;2798;42.716;23.256;2023-08-01T06:56:45;3.77;;;2.40;;
5549;SDS011;2798;42.716;23.256;2023-08-01T06:59:13;2.00;;;1.90;;
5549;SDS011;2798;42.716;23.256;2023-08-01T07:01:40;3.47;;;1.80;;
5549;SDS011;2798;42.716;23.256;2023-08-01T07:04:11;4.70;;;2.37;;
5549;SDS011;2798;42.716;23.256;2023-08-01T07:06:38;2.40;;;2.17;;
5549;SDS011;2798;42.716;23.256;2023-08-01T07:09:04;5.30;;;2.73;;
5549;SDS011;2798;42.716;23.256;2023-08-01T07:11:30;2.97;;;2.00;;
5549;SDS011;2798;42.716;23.256;2023-08-01T07:13:55;3.13;;;2.43;;
5549;SDS011;2798;42.716;23.256;2023-08-01T07:16:21;3.50;;;2.50;;
5549;SDS011;2798;42.716;23.256;2023-08-01T07:18:46;3.77;;;2.53;;
5549;SDS011;2798;42.716;23.256;2023-08-01T07:21:13;10.07;;;2.37;;
5549;SDS011;2798;42.716;23.256;2023-08-01T07:23:39;3.80;;;2.73;;
5549;SDS011;2798;42.716;23.256;2023-08-01T07:26:05;4.20;;;2.77;;
5549;SDS011;2798;42.716;23.256;2023-08-01T07:28:30;4.47;;;2.27;;
5549;SDS011;2798;42.716;23.256;2023-08-01T07:33:25;3.23;;;2.37;;
5549;SDS011;2798;42.716;23.256;2023-08-01T07:35:50;3.20;;;2.10;;
5549;SDS011;2798;42.716;23.256;2023-08-01T07:38:15;4.50;;;2.60;;
5549;SDS011;2798;42.716;23.256;2023-08-01T07:40:41;6.37;;;2.40;;
5549;SDS011;2798;42.716;23.256;2023-08-01T07:43:06;2.90;;;2.40;;
5549;SDS011;2798;42.716;23.256;2023-08-01T07:45:35;6.70;;;2.43;;
5549;SDS011;2798;42.716;23.256;2023-08-01T07:48:01;6.27;;;2.27;;
5549;SDS011;2798;42.716;23.256;2023-08-01T07:50:27;5.77;;;2.90;;
5549;SDS011;2798;42.716;23.256;2023-08-01T07:52:52;5.63;;;2.67;;
5549;SDS011;2798;42.716;23.256;2023-08-01T07:55:18;5.13;;;2.47;;
5549;SDS011;2798;42.716;23.256;2023-08-01T07:57:52;6.77;;;3.27;;
5549;SDS011;2798;42.716;23.256;2023-08-01T08:00:17;7.33;;;3.03;;
5549;SDS011;2798;42.716;23.256;2023-08-01T08:02:43;3.93;;;2.50;;
5549;SDS011;2798;42.716;23.256;2023-08-01T08:05:10;11.60;;;3.10;;
5549;SDS011;2798;42.716;23.256;2023-08-01T08:07:38;2.90;;;2.60;;
5549;SDS011;2798;42.716;23.256;2023-08-01T08:10:04;8.00;;;2.53;;
5549;SDS011;2798;42.716;23.256;2023-08-01T08:12:31;5.10;;;2.57;;
5549;SDS011;2798;42.716;23.256;2023-08-01T08:14:57;4.37;;;2.93;;
5549;SDS011;2798;42.716;23.256;2023-08-01T08:17:22;7.70;;;3.10;;
5549;SDS011;2798;42.716;23.256;2023-08-01T08:19:48;4.33;;;2.60;;
5549;SDS011;2798;42.716;23.256;2023-08-01T08:22:13;5.27;;;2.40;;
5549;SDS011;2798;42.716;23.256;2023-08-01T08:24:38;5.17;;;2.60;;
5549;SDS011;2798;42.716;23.256;2023-08-01T08:27:04;3.13;;;2.77;;
5549;SDS011;2798;42.716;23.256;2023-08-01T08:29:30;5.00;;;2.67;;
5549;SDS011;2798;42.716;23.256;2023-08-01T08:31:56;3.23;;;2.80;;
5549;SDS011;2798;42.716;23.256;2023-08-01T08:34:22;13.00;;;2.77;;
5549;SDS011;2798;42.716;23.256;2023-08-01T08:36:47;3.03;;;2.60;;
5549;SDS011;2798;42.716;23.256;2023-08-01T08:39:15;8.50;;;3.20;;
5549;SDS011;2798;42.716;23.256;2023-08-01T08:41:47;4.80;;;3.30;;
5549;SDS011;2798;42.716;23.256;2023-08-01T08:44:16;5.80;;;2.80;;
5549;SDS011;2798;42.716;23.256;2023-08-01T08:46:43;7.30;;;2.83;;
5549;SDS011;2798;42.716;23.256;2023-08-01T08:49:09;4.50;;;2.93;;
5549;SDS011;2798;42.716;23.256;2023-08-01T08:51:37;5.10;;;2.73;;
5549;SDS011;2798;42.716;23.256;2023-08-01T08:54:03;6.70;;;2.63;;
5549;SDS011;2798;42.716;23.256;2023-08-01T08:56:30;2.40;;;2.20;;
5549;SDS011;2798;42.716;23.256;2023-08-01T08:58:57;6.33;;;3.13;;
5549;SDS011;2798;42.716;23.256;2023-08-01T09:01:24;8.10;;;2.80;;
5549;SDS011;2798;42.716;23.256;2023-08-01T09:03:49;3.20;;;2.80;;
5549;SDS011;2798;42.716;23.256;2023-08-01T09:06:15;3.70;;;2.70;;
5549;SDS011;2798;42.716;23.256;2023-08-01T09:08:53;3.20;;;2.70;;
5549;SDS011;2798;42.716;23.256;2023-08-01T09:11:24;3.73;;;2.50;;
5549;SDS011;2798;42.716;23.256;2023-08-01T09:13:49;6.97;;;3.40;;
5549;SDS011;2798;42.716;23.256;2023-08-01T09:16:15;5.27;;;3.30;;
5549;SDS011;2798;42.716;23.256;2023-08-01T09:18:48;3.80;;;3.00;;
5549;SDS011;2798;42.716;23.256;2023-08-01T09:21:13;4.60;;;2.90;;
5549;SDS011;2798;42.716;23.256;2023-08-01T09:23:39;3.17;;;2.60;;
5549;SDS011;2798;42.716;23.256;2023-08-01T09:26:17;3.30;;;2.73;;
5549;SDS011;2798;42.716;23.256;2023-08-01T09:28:43;5.03;;;3.17;;
5549;SDS011;2798;42.716;23.256;2023-08-01T09:31:09;6.27;;;3.10;;
5549;SDS011;2798;42.716;23.256;2023-08-01T09:33:39;5.33;;;3.17;;
5549;SDS011;2798;42.716;23.256;2023-08-01T09:36:09;6.43;;;3.13;;
5549;SDS011;2798;42.716;23.256;2023-08-01T09:38:35;5.90;;;3.00;;
5549;SDS011;2798;42.716;23.256;2023-08-01T09:41:01;10.60;;;3.00;;
5549;SDS011;2798;42.716;23.256;2023-08-01T09:43:34;4.70;;;3.60;;
5549;SDS011;2798;42.716;23.256;2023-08-01T09:46:01;3.50;;;2.70;;
5549;SDS011;2798;42.716;23.256;2023-08-01T09:48:27;4.70;;;3.23;;
5549;SDS011;2798;42.716;23.256;2023-08-01T09:51:04;4.17;;;3.00;;
5549;SDS011;2798;42.716;23.256;2023-08-01T09:53:33;9.90;;;3.27;;
5549;SDS011;2798;42.716;23.256;2023-08-01T09:56:02;7.20;;;2.93;;
5549;SDS011;2798;42.716;23.256;2023-08-01T09:58:32;4.90;;;2.83;;
5549;SDS011;2798;42.716;23.256;2023-08-01T10:00:59;4.27;;;2.80;;
5549;SDS011;2798;42.716;23.256;2023-08-01T10:03:28;3.90;;;2.80;;
5549;SDS011;2798;42.716;23.256;2023-08-01T10:05:55;9.73;;;3.47;;
5549;SDS011;2798;42.716;23.256;2023-08-01T10:08:21;5.10;;;3.30;;
5549;SDS011;2798;42.716;23.256;2023-08-01T10:10:48;4.57;;;3.00;;
5549;SDS011;2798;42.716;23.256;2023-08-01T10:13:13;7.20;;;3.37;;
5549;SDS011;2798;42.716;23.256;2023-08-01T10:15:40;7.47;;;3.40;;
5549;SDS011;2798;42.716;23.256;2023-08-01T10:18:06;3.80;;;3.07;;
5549;SDS011;2798;42.716;23.256;2023-08-01T10:20:32;7.43;;;3.00;;
5549;SDS011;2798;42.716;23.256;2023-08-01T10:22:59;3.87;;;2.83;;
5549;SDS011;2798;42.716;23.256;2023-08-01T10:25:25;3.90;;;3.00;;
5549;SDS011;2798;42.716;23.256;2023-08-01T10:28:00;6.50;;;3.23;;
5549;SDS011;2798;42.716;23.256;2023-08-01T10:30:27;3.70;;;2.87;;
5549;SDS011;2798;42.716;23.256;2023-08-01T10:32:57;3.23;;;2.90;;
5549;SDS011;2798;42.716;23.256;2023-08-01T10:35:36;5.13;;;2.70;;
5549;SDS011;2798;42.716;23.256;2023-08-01T10:38:06;3.63;;;2.67;;
5549;SDS011;2798;42.716;23.256;2023-08-01T10:40:42;3.73;;;3.10;;
5549;SDS011;2798;42.716;23.256;2023-08-01T10:43:21;4.30;;;2.97;;
5549;SDS011;2798;42.716;23.256;2023-08-01T10:45:47;3.13;;;2.83;;
5549;SDS011;2798;42.716;23.256;2023-08-01T10:48:13;9.57;;;2.97;;
5549;SDS011;2798;42.716;23.256;2023-08-01T10:50:39;6.47;;;2.70;;
5549;SDS011;2798;42.716;23.256;2023-08-01T10:53:06;5.37;;;3.20;;
5549;SDS011;2798;42.716;23.256;2023-08-01T10:55:41;3.60;;;3.00;;
5549;SDS011;2798;42.716;23.256;2023-08-01T10:58:27;7.43;;;2.87;;
5549;SDS011;2798;42.716;23.256;2023-08-01T11:00:59;6.23;;;3.30;;
5549;SDS011;2798;42.716;23.256;2023-08-01T11:03:38;4.40;;;3.60;;
5549;SDS011;2798;42.716;23.256;2023-08-01T11:06:04;3.53;;;3.07;;
5549;SDS011;2798;42.716;23.256;2023-08-01T11:08:39;6.30;;;2.90;;
5549;SDS011;2798;42.716;23.256;2023-08-01T11:11:07;3.50;;;3.20;;
5549;SDS011;2798;42.716;23.256;2023-08-01T11:13:36;3.67;;;3.00;;
5549;SDS011;2798;42.716;23.256;2023-08-01T11:16:02;4.00;;;2.80;;
5549;SDS011;2798;42.716;23.256;2023-08-01T11:18:28;2.93;;;2.63;;
5549;SDS011;2798;42.716;23.256;2023-08-01T11:20:55;1.97;;;1.83;;
5549;SDS011;2798;42.716;23.256;2023-08-01T11:23:27;2.13;;;1.93;;
5549;SDS011;2798;42.716;23.256;2023-08-01T11:25:53;3.83;;;2.43;;
5549;SDS011;2798;42.716;23.256;2023-08-01T11:28:20;2.83;;;2.50;;
5549;SDS011;2798;42.716;23.256;2023-08-01T11:30:45;2.60;;;2.40;;
5549;SDS011;2798;42.716;23.256;2023-08-01T11:35:53;2.30;;;2.10;;
5549;SDS011;2798;42.716;23.256;2023-08-01T11:38:25;2.30;;;2.10;;
5549;SDS011;2798;42.716;23.256;2023-08-01T11:40:51;2.30;;;2.10;;
5549;SDS011;2798;42.716;23.256;2023-08-01T11:43:17;3.40;;;3.10;;
5549;SDS011;2798;42.716;23.256;2023-08-01T11:45:53;4.30;;;2.10;;
5549;SDS011;2798;42.716;23.256;2023-08-01T11:48:21;6.30;;;2.50;;
5549;SDS011;2798;42.716;23.256;2023-08-01T11:50:48;2.93;;;2.40;;
5549;SDS011;2798;42.716;23.256;2023-08-01T11:53:20;2.00;;;1.80;;
5549;SDS011;2798;42.716;23.256;2023-08-01T11:55:46;2.67;;;2.10;;
5549;SDS011;2798;42.716;23.256;2023-08-01T11:58:13;2.30;;;2.10;;
5549;SDS011;2798;42.716;23.256;2023-08-01T12:00:39;2.83;;;2.30;;
5549;SDS011;2798;42.716;23.256;2023-08-01T12:03:07;2.17;;;2.00;;
5549;SDS011;2798;42.716;23.256;2023-08-01T12:05:38;2.80;;;2.30;;
5549;SDS011;2798;42.716;23.256;2023-08-01T12:08:13;2.83;;;2.10;;
5549;SDS011;2798;42.716;23.256;2023-08-01T12:10:43;2.83;;;2.20;;
5549;SDS011;2798;42.716;23.256;2023-08-01T12:13:19;3.60;;;1.73;;
5549;SDS011;2798;42.716;23.256;2023-08-01T12:15:49;1.60;;;1.50;;
5549;SDS011;2798;42.716;23.256;2023-08-01T12:18:25;2.00;;;1.80;;
5549;SDS011;2798;42.716;23.256;2023-08-01T12:20:54;2.73;;;1.97;;
5549;SDS011;2798;42.716;23.256;2023-08-01T12:23:20;2.43;;;2.23;;
5549;SDS011;2798;42.716;23.256;2023-08-01T12:25:46;3.30;;;2.27;;
5549;SDS011;2798;42.716;23.256;2023-08-01T12:28:13;2.43;;;2.20;;
5549;SDS011;2798;42.716;23.256;2023-08-01T12:30:40;3.50;;;2.43;;
5549;SDS011;2798;42.716;23.256;2023-08-01T12:33:09;2.13;;;1.87;;
5549;SDS011;2798;42.716;23.256;2023-08-01T12:35:38;2.13;;;1.97;;
5549;SDS011;2798;42.716;23.256;2023-08-01T12:38:04;2.53;;;1.80;;
5549;SDS011;2798;42.716;23.256;2023-08-01T12:40:30;2.03;;;1.87;;
5549;SDS011;2798;42.716;23.256;2023-08-01T12:42:55;2.57;;;2.10;;
5549;SDS011;2798;42.716;23.256;2023-08-01T12:45:20;2.40;;;2.10;;
5549;SDS011;2798;42.716;23.256;2023-08-01T12:47:46;2.87;;;2.20;;
5549;SDS011;2798;42.716;23.256;2023-08-01T12:50:11;3.27;;;2.47;;
5549;SDS011;2798;42.716;23.256;2023-08-01T12:52:37;6.40;;;2.57;;
5549;SDS011;2798;42.716;23.256;2023-08-01T12:55:02;2.50;;;1.77;;
5549;SDS011;2798;42.716;23.256;2023-08-01T12:57:28;2.33;;;1.80;;
5549;SDS011;2798;42.716;23.256;2023-08-01T12:59:53;2.37;;;2.10;;
5549;SDS011;2798;42.716;23.256;2023-08-01T13:02:19;3.20;;;2.00;;
5549;SDS011;2798;42.716;23.256;2023-08-01T13:04:44;4.23;;;2.00;;
5549;SDS011;2798;42.716;23.256;2023-08-01T13:07:09;2.90;;;2.07;;
5549;SDS011;2798;42.716;23.256;2023-08-01T13:09:35;2.10;;;1.90;;
5549;SDS011;2798;42.716;23.256;2023-08-01T13:12:00;1.90;;;1.80;;
5549;SDS011;2798;42.716;23.256;2023-08-01T13:14:26;3.73;;;2.10;;
5549;SDS011;2798;42.716;23.256;2023-08-01T13:16:51;2.23;;;1.93;;
5549;SDS011;2798;42.716;23.256;2023-08-01T13:19:17;6.83;;;2.03;;
5549;SDS011;2798;42.716;23.256;2023-08-01T13:21:43;4.13;;;2.00;;
5549;SDS011;2798;42.716;23.256;2023-08-01T13:24:08;3.60;;;2.20;;
5549;SDS011;2798;42.716;23.256;2023-08-01T13:26:34;2.40;;;2.20;;
5549;SDS011;2798;42.716;23.256;2023-08-01T13:29:00;3.87;;;2.47;;
5549;SDS011;2798;42.716;23.256;2023-08-01T13:31:25;2.60;;;2.40;;
5549;SDS011;2798;42.716;23.256;2023-08-01T13:33:51;2.60;;;2.07;;
5549;SDS011;2798;42.716;23.256;2023-08-01T13:36:19;2.50;;;1.90;;
5549;SDS011;2798;42.716;23.256;2023-08-01T13:38:45;2.50;;;2.00;;
5549;SDS011;2798;42.716;23.256;2023-08-01T13:41:10;2.30;;;2.00;;
5549;SDS011;2798;42.716;23.256;2023-08-01T13:43:36;3.70;;;2.00;;
5549;SDS011;2798;42.716;23.256;2023-08-01T13:46:09;2.43;;;2.23;;
5549;SDS011;2798;42.716;23.256;2023-08-01T13:48:41;2.03;;;1.83;;
5549;SDS011;2798;42.716;23.256;2023-08-01T13:51:07;2.20;;;2.00;;
5549;SDS011;2798;42.716;23.256;2023-08-01T13:53:32;2.33;;;2.10;;
5549;SDS011;2798;42.716;23.256;2023-08-01T13:55:58;5.10;;;2.00;;
5549;SDS011;2798;42.716;23.256;2023-08-01T13:58:24;3.00;;;1.90;;
5549;SDS011;2798;42.716;23.256;2023-08-01T14:00:49;4.30;;;1.83;;
5549;SDS011;2798;42.716;23.256;2023-08-01T14:03:15;2.67;;;2.10;;
5549;SDS011;2798;42.716;23.256;2023-08-01T14:05:40;2.20;;;2.00;;
5549;SDS011;2798;42.716;23.256;2023-08-01T14:08:06;2.60;;;2.40;;
5549;SDS011;2798;42.716;23.256;2023-08-01T14:10:31;2.30;;;1.93;;
5549;SDS011;2798;42.716;23.256;2023-08-01T14:12:57;2.87;;;1.90;;
5549;SDS011;2798;42.716;23.256;2023-08-01T14:15:23;2.23;;;2.03;;
5549;SDS011;2798;42.716;23.256;2023-08-01T14:17:48;2.70;;;2.50;;
5549;SDS011;2798;42.716;23.256;2023-08-01T14:20:14;2.23;;;2.03;;
5549;SDS011;2798;42.716;23.256;2023-08-01T14:22:40;2.47;;;2.07;;
5549;SDS011;2798;42.716;23.256;2023-08-01T14:25:07;2.10;;;1.90;;
5549;SDS011;2798;42.716;23.256;2023-08-01T14:27:33;3.63;;;2.07;;
5549;SDS011;2798;42.716;23.256;2023-08-01T14:29:59;2.30;;;2.10;;
5549;SDS011;2798;42.716;23.256;2023-08-01T14:32:25;3.43;;;2.70;;
5549;SDS011;2798;42.716;23.256;2023-08-01T14:34:50;7.23;;;2.13;;
5549;SDS011;2798;42.716;23.256;2023-08-01T14:37:16;2.40;;;2.20;;
5549;SDS011;2798;42.716;23.256;2023-08-01T14:39:41;2.27;;;2.07;;
5549;SDS011;2798;42.716;23.256;2023-08-01T14:42:07;2.00;;;1.90;;
5549;SDS011;2798;42.716;23.256;2023-08-01T14:44:32;2.47;;;2.23;;
5549;SDS011;2798;42.716;23.256;2023-08-01T14:46:58;2.10;;;1.90;;
5549;SDS011;2798;42.716;23.256;2023-08-01T14:49:23;3.10;;;2.10;;
5549;SDS011;2798;42.716;23.256;2023-08-01T14:51:52;2.37;;;2.00;;
5549;SDS011;2798;42.716;23.256;2023-08-01T14:54:17;2.20;;;2.03;;
5549;SDS011;2798;42.716;23.256;2023-08-01T14:56:43;2.23;;;2.13;;
5549;SDS011;2798;42.716;23.256;2023-08-01T14:59:09;2.85;;;2.40;;
5549;SDS011;2798;42.716;23.256;2023-08-01T15:01:34;2.33;;;2.10;;